createdAt,value
2022-12-05T00:00:28.503Z,4.60
2022-12-05T00:02:55.194Z,4.10
2022-12-05T00:05:21.893Z,3.90
2022-12-05T00:07:48.634Z,3.90
2022-12-05T00:10:15.727Z,4.50
2022-12-05T00:12:42.500Z,3.80
2022-12-05T00:15:12.511Z,4.40
2022-12-05T00:17:40.789Z,3.80
2022-12-05T00:20:08.366Z,4.70
2022-12-05T00:22:35.956Z,3.90
2022-12-05T00:25:02.976Z,4.10
2022-12-05T00:27:29.660Z,3.80
2022-12-05T00:29:57.813Z,4.60
2022-12-05T00:32:24.689Z,3.90
2022-12-05T00:34:51.362Z,4.20
2022-12-05T00:37:18.049Z,3.90
2022-12-05T00:39:44.744Z,3.80
2022-12-05T00:42:11.431Z,3.90
2022-12-05T00:44:38.114Z,3.90
2022-12-05T00:47:04.776Z,3.90
2022-12-05T00:49:31.428Z,4.60
2022-12-05T00:51:58.081Z,3.80
2022-12-05T00:54:24.714Z,3.80
2022-12-05T00:56:56.341Z,3.80
2022-12-05T00:59:23.260Z,3.70
2022-12-05T01:01:50.447Z,3.80
2022-12-05T01:04:19.264Z,3.70
2022-12-05T01:06:46.190Z,3.80
2022-12-05T01:09:14.280Z,3.80
2022-12-05T01:11:41.774Z,3.80
2022-12-05T01:14:09.732Z,3.70
2022-12-05T01:16:37.282Z,3.80
2022-12-05T01:19:05.775Z,3.80
2022-12-05T01:21:32.409Z,3.80
2022-12-05T01:23:59.272Z,3.90
2022-12-05T01:26:25.966Z,3.90
2022-12-05T01:28:52.786Z,3.90
2022-12-05T01:31:37.791Z,3.90
2022-12-05T01:34:06.600Z,3.90
2022-12-05T01:36:33.425Z,3.90
2022-12-05T01:39:00.398Z,4.30
2022-12-05T01:41:29.026Z,3.80
2022-12-05T01:44:15.983Z,3.90
2022-12-05T01:46:47.624Z,4.70
2022-12-05T01:49:16.859Z,3.80
2022-12-05T01:51:46.020Z,3.80
2022-12-05T01:54:13.683Z,3.80
2022-12-05T01:56:41.534Z,4.30
2022-12-05T01:59:09.247Z,3.80
2022-12-05T02:01:36.040Z,3.80
2022-12-05T02:04:03.286Z,3.80
2022-12-05T02:06:30.313Z,3.80
2022-12-05T02:08:57.001Z,3.80
2022-12-05T02:11:25.016Z,3.80
2022-12-05T02:13:51.622Z,3.80
2022-12-05T02:16:18.275Z,3.80
2022-12-05T02:18:57.246Z,3.80
2022-12-05T02:21:36.100Z,3.80
2022-12-05T02:24:25.197Z,3.80
2022-12-05T02:26:54.910Z,3.80
2022-12-05T02:29:36.825Z,4.00
2022-12-05T02:32:16.581Z,3.90
2022-12-05T02:34:52.039Z,3.80
2022-12-05T02:37:29.583Z,3.90
2022-12-05T02:39:59.489Z,3.80
2022-12-05T02:42:35.543Z,4.00
2022-12-05T02:45:07.241Z,4.00
2022-12-05T02:47:36.901Z,4.00
2022-12-05T02:50:04.028Z,4.80
2022-12-05T02:52:32.118Z,3.90
2022-12-05T02:54:59.837Z,3.90
2022-12-05T02:57:26.480Z,3.90
2022-12-05T02:59:53.157Z,3.90
2022-12-05T03:02:46.225Z,3.90
2022-12-05T03:05:12.876Z,4.00
2022-12-05T03:07:40.122Z,3.90
2022-12-05T03:10:07.964Z,4.00
2022-12-05T03:12:39.798Z,3.90
2022-12-05T03:15:09.590Z,3.90
2022-12-05T03:17:40.919Z,3.90
2022-12-05T03:20:15.727Z,3.90
2022-12-05T03:22:46.393Z,4.50
2022-12-05T03:25:13.654Z,3.90
2022-12-05T03:27:46.784Z,4.10
2022-12-05T03:30:16.088Z,4.00
2022-12-05T03:32:42.664Z,4.00
2022-12-05T03:35:15.244Z,4.10
2022-12-05T03:37:44.983Z,4.10
2022-12-05T03:40:31.901Z,4.00
2022-12-05T03:43:02.806Z,4.00
2022-12-05T03:45:36.698Z,4.00
2022-12-05T03:48:22.422Z,4.10
2022-12-05T03:50:49.885Z,4.10
2022-12-05T03:53:20.645Z,4.00
2022-12-05T03:55:51.191Z,4.10
2022-12-05T03:58:21.114Z,4.10
2022-12-05T04:00:48.574Z,4.10
2022-12-05T04:03:19.388Z,4.00
2022-12-05T04:05:46.126Z,4.00
2022-12-05T04:08:31.643Z,3.90
2022-12-05T04:11:01.627Z,4.00
2022-12-05T04:13:45.953Z,4.00
2022-12-05T04:16:37.562Z,3.90
2022-12-05T04:19:13.516Z,4.00
2022-12-05T04:21:45.268Z,3.90
2022-12-05T04:24:36.335Z,3.90
2022-12-05T04:27:09.935Z,4.00
2022-12-05T04:29:45.772Z,3.90
2022-12-05T04:32:13.939Z,3.90
2022-12-05T04:34:41.990Z,3.80
2022-12-05T04:37:13.282Z,3.90
2022-12-05T04:39:44.652Z,3.90
2022-12-05T04:42:14.281Z,3.80
2022-12-05T04:44:44.249Z,3.90
2022-12-05T04:47:12.282Z,3.80
2022-12-05T04:49:40.404Z,3.80
2022-12-05T04:52:11.195Z,3.70
2022-12-05T04:54:43.585Z,3.80
2022-12-05T04:57:12.781Z,3.70
2022-12-05T04:59:39.399Z,3.60
2022-12-05T05:02:10.595Z,3.70
2022-12-05T05:04:47.567Z,3.60
2022-12-05T05:07:14.503Z,3.70
2022-12-05T05:09:41.394Z,3.50
2022-12-05T05:12:08.066Z,3.40
2022-12-05T05:14:34.964Z,3.60
2022-12-05T05:17:01.695Z,3.60
2022-12-05T05:19:28.351Z,3.60
2022-12-05T05:21:54.967Z,3.50
2022-12-05T05:24:23.165Z,3.60
2022-12-05T05:26:55.507Z,3.60
2022-12-05T05:29:23.782Z,3.50
2022-12-05T05:31:50.418Z,3.60
2022-12-05T05:34:17.102Z,3.60
2022-12-05T05:36:44.103Z,3.50
2022-12-05T05:39:15.061Z,3.50
2022-12-05T05:41:42.796Z,3.60
2022-12-05T05:44:09.555Z,3.60
2022-12-05T05:46:36.694Z,3.50
2022-12-05T05:49:03.579Z,3.40
2022-12-05T05:51:30.579Z,3.50
2022-12-05T05:53:57.515Z,3.60
2022-12-05T05:56:24.158Z,3.60
2022-12-05T05:59:01.551Z,3.60
2022-12-05T06:01:28.406Z,3.60
2022-12-05T06:03:55.260Z,3.60
2022-12-05T06:06:22.578Z,3.70
2022-12-05T06:08:49.280Z,3.70
2022-12-05T06:11:24.608Z,3.60
2022-12-05T06:13:52.885Z,3.60
2022-12-05T06:16:19.750Z,4.20
2022-12-05T06:18:46.459Z,3.50
2022-12-05T06:21:16.172Z,3.60
2022-12-05T06:23:43.348Z,3.50
2022-12-05T06:26:11.566Z,3.50
2022-12-05T06:28:39.474Z,3.40
2022-12-05T06:31:10.600Z,3.50
2022-12-05T06:33:37.299Z,3.50
2022-12-05T06:36:08.420Z,3.50
2022-12-05T06:38:40.432Z,3.50
2022-12-05T06:41:10.579Z,3.40
2022-12-05T06:43:37.235Z,3.50
2022-12-05T06:46:08.007Z,3.50
2022-12-05T06:48:34.978Z,3.40
2022-12-05T06:51:01.656Z,3.40
2022-12-05T06:53:28.376Z,3.50
2022-12-05T06:55:59.410Z,3.50
2022-12-05T06:58:26.077Z,3.50
2022-12-05T07:01:11.575Z,3.50
2022-12-05T07:03:38.333Z,3.50
2022-12-05T07:06:05.935Z,3.40
2022-12-05T07:08:33.190Z,3.50
2022-12-05T07:10:59.820Z,3.40
2022-12-05T07:13:26.491Z,3.40
2022-12-05T07:15:53.168Z,3.40
2022-12-05T07:18:19.765Z,3.40
2022-12-05T07:21:12.156Z,3.40
2022-12-05T07:23:39.959Z,3.40
2022-12-05T07:26:07.463Z,3.30
2022-12-05T07:28:34.543Z,4.30
2022-12-05T07:31:05.717Z,3.30
2022-12-05T07:33:32.465Z,3.40
2022-12-05T07:36:02.829Z,3.40
2022-12-05T07:38:29.481Z,3.40
2022-12-05T07:40:56.439Z,3.40
2022-12-05T07:43:23.309Z,3.60
2022-12-05T07:45:50.330Z,3.50
2022-12-05T07:48:18.982Z,3.50
2022-12-05T07:50:45.941Z,3.50
2022-12-05T07:53:12.601Z,3.40
2022-12-05T07:55:39.395Z,3.50
2022-12-05T07:58:06.239Z,3.50
2022-12-05T08:00:32.937Z,3.60
2022-12-05T08:03:02.198Z,3.60
2022-12-05T08:05:29.062Z,3.70
2022-12-05T08:07:55.766Z,3.60
2022-12-05T08:10:22.454Z,3.70
2022-12-05T08:12:49.107Z,3.70
2022-12-05T08:15:15.844Z,3.60
2022-12-05T08:17:42.584Z,3.60
2022-12-05T08:20:09.507Z,3.60
2022-12-05T08:22:36.231Z,3.70
2022-12-05T08:25:02.887Z,3.60
2022-12-05T08:27:29.566Z,3.60
2022-12-05T08:29:56.551Z,3.70
2022-12-05T08:32:23.362Z,3.80
2022-12-05T08:34:50.045Z,3.80
2022-12-05T08:37:16.712Z,3.70
2022-12-05T08:39:43.342Z,3.70
2022-12-05T08:42:10.037Z,3.70
2022-12-05T08:44:36.712Z,3.70
2022-12-05T08:47:03.439Z,3.70
2022-12-05T08:49:30.085Z,3.70
2022-12-05T08:51:56.778Z,3.70
2022-12-05T08:54:23.355Z,3.80
2022-12-05T08:56:53.009Z,3.70
2022-12-05T08:59:19.873Z,3.70
2022-12-05T09:01:46.613Z,3.70
2022-12-05T09:04:13.376Z,3.70
2022-12-05T09:06:40.410Z,3.70
2022-12-05T09:09:07.996Z,3.60
2022-12-05T09:11:36.510Z,3.70
2022-12-05T09:14:03.621Z,3.70
2022-12-05T09:16:37.123Z,3.70
2022-12-05T09:19:05.580Z,4.20
2022-12-05T09:21:32.571Z,3.70
2022-12-05T09:23:59.551Z,3.60
2022-12-05T09:26:26.685Z,3.60
2022-12-05T09:28:53.352Z,3.60
2022-12-05T09:31:21.293Z,3.70
2022-12-05T09:33:49.100Z,3.60
2022-12-05T09:36:17.351Z,3.60
2022-12-05T09:38:44.339Z,3.80
2022-12-05T09:41:48.209Z,3.70
2022-12-05T09:44:25.654Z,3.80
2022-12-05T09:46:54.849Z,3.80
2022-12-05T09:49:23.246Z,3.70
2022-12-05T09:51:55.348Z,3.70
2022-12-05T09:54:38.113Z,3.70
2022-12-05T09:57:05.016Z,3.70
2022-12-05T09:59:31.617Z,3.60
2022-12-05T10:05:51.706Z,3.80
2022-12-05T10:11:37.179Z,3.80
2022-12-05T10:14:26.246Z,3.90
2022-12-05T10:39:45.060Z,3.90
2022-12-05T10:45:13.814Z,4.00
2022-12-05T10:47:40.400Z,4.00
2022-12-05T10:50:13.900Z,3.90
2022-12-05T10:52:40.512Z,3.90
2022-12-05T10:55:08.299Z,3.90
2022-12-05T10:57:35.621Z,4.00
2022-12-05T11:00:13.677Z,4.00
2022-12-05T11:02:41.776Z,4.00
2022-12-05T11:05:08.841Z,4.10
2022-12-05T11:07:37.955Z,4.10
2022-12-05T11:10:24.928Z,4.20
2022-12-05T11:12:55.352Z,4.10
2022-12-05T11:15:24.963Z,4.00
2022-12-05T11:17:52.786Z,4.00
2022-12-05T11:20:19.377Z,4.00
2022-12-05T11:22:48.892Z,4.10
2022-12-05T11:25:28.013Z,4.00
2022-12-05T11:28:00.794Z,4.00
2022-12-05T11:30:29.189Z,4.00
2022-12-05T11:33:13.039Z,4.00
2022-12-05T11:35:40.027Z,4.00
2022-12-05T11:38:07.040Z,4.10
2022-12-05T11:40:52.893Z,4.10
2022-12-05T11:43:27.338Z,4.00
2022-12-05T11:46:00.933Z,3.90
2022-12-05T11:48:27.566Z,4.00
2022-12-05T11:51:10.961Z,4.00
2022-12-05T11:53:54.951Z,4.00
2022-12-05T11:56:38.417Z,4.00
2022-12-05T11:59:17.276Z,4.10
2022-12-05T12:05:29.757Z,4.30
2022-12-05T12:08:28.555Z,4.30
2022-12-05T12:14:38.513Z,4.30
2022-12-05T12:26:53.401Z,4.30
2022-12-05T12:29:19.945Z,4.30
2022-12-05T12:31:52.613Z,4.20
2022-12-05T12:34:19.313Z,4.30
2022-12-05T12:36:48.810Z,4.40
2022-12-05T12:39:38.774Z,4.40
2022-12-05T12:42:17.363Z,4.60
2022-12-05T12:45:11.462Z,4.60
2022-12-05T13:05:09.489Z,4.60
2022-12-05T13:07:52.378Z,4.60
2022-12-05T13:10:25.151Z,4.60
2022-12-05T13:12:52.441Z,4.50
2022-12-05T13:15:44.624Z,4.60
2022-12-05T13:18:17.046Z,4.60
2022-12-05T13:20:44.558Z,4.50
2022-12-05T13:23:18.997Z,4.60
2022-12-05T13:25:47.385Z,4.50
2022-12-05T13:28:26.066Z,4.60
2022-12-05T13:31:04.017Z,4.60
2022-12-05T13:33:32.603Z,4.70
2022-12-05T13:36:27.199Z,5.00
2022-12-05T13:39:20.197Z,4.80
2022-12-05T13:42:09.808Z,4.90
2022-12-05T13:44:38.229Z,4.90
2022-12-05T13:47:07.520Z,4.70
2022-12-05T13:49:52.843Z,4.80
2022-12-05T13:52:25.046Z,4.70
2022-12-05T13:54:58.169Z,4.80
2022-12-05T13:57:40.220Z,4.70
2022-12-05T14:00:10.233Z,4.60
2022-12-05T14:02:47.143Z,4.60
2022-12-05T14:05:13.854Z,4.60
2022-12-05T14:07:44.894Z,4.80
2022-12-05T14:10:18.613Z,4.80
2022-12-05T14:12:59.107Z,4.70
2022-12-05T14:15:25.964Z,4.70
2022-12-05T14:18:04.874Z,4.60
2022-12-05T14:20:35.368Z,4.70
2022-12-05T14:23:20.517Z,4.60
2022-12-05T14:26:08.936Z,4.60
2022-12-05T14:28:54.264Z,4.70
2022-12-05T14:31:39.364Z,4.70
2022-12-05T14:34:18.115Z,4.70
2022-12-05T14:37:11.100Z,4.70
2022-12-05T14:39:39.626Z,4.60
2022-12-05T14:42:25.280Z,4.60
2022-12-05T14:44:53.843Z,4.60
2022-12-05T14:47:22.988Z,4.60
2022-12-05T14:49:58.580Z,4.50
2022-12-05T14:52:26.311Z,4.50
2022-12-05T14:54:53.934Z,4.50
2022-12-05T14:57:21.074Z,4.50
2022-12-05T15:00:02.208Z,4.50
2022-12-05T15:02:31.439Z,4.60
2022-12-05T15:05:04.566Z,4.50
2022-12-05T15:07:33.830Z,4.50
2022-12-05T15:10:00.874Z,4.50
2022-12-05T15:12:30.000Z,4.60
2022-12-05T15:15:05.794Z,4.50
2022-12-05T15:17:46.865Z,4.60
2022-12-05T15:20:19.174Z,4.60
2022-12-05T15:22:45.874Z,4.60
2022-12-05T15:25:21.319Z,4.40
2022-12-05T15:27:52.890Z,4.50
2022-12-05T15:30:19.533Z,4.50
2022-12-05T15:32:46.237Z,4.50
2022-12-05T15:35:15.104Z,4.30
2022-12-05T15:37:48.061Z,4.30
2022-12-05T15:40:17.931Z,4.30
2022-12-05T15:42:46.114Z,4.30
2022-12-05T15:45:15.800Z,4.40
2022-12-05T15:47:45.655Z,4.40
2022-12-05T15:50:16.208Z,4.30
2022-12-05T15:52:43.913Z,4.30
2022-12-05T15:55:30.477Z,4.30
2022-12-05T15:58:08.182Z,4.20
2022-12-05T16:00:40.716Z,4.30
2022-12-05T16:03:11.933Z,4.30
2022-12-05T16:05:40.446Z,4.20
2022-12-05T16:08:08.437Z,4.20
2022-12-05T16:10:35.898Z,4.20
2022-12-05T16:13:04.178Z,4.20
2022-12-05T16:15:30.851Z,4.30
2022-12-05T16:17:59.072Z,4.20
2022-12-05T16:20:33.139Z,4.20
2022-12-05T16:23:21.676Z,4.20
2022-12-05T16:25:49.063Z,4.20
2022-12-05T16:28:17.172Z,4.30
2022-12-05T16:30:54.160Z,4.30
2022-12-05T16:33:21.169Z,4.40
2022-12-05T16:35:49.375Z,4.40
2022-12-05T16:38:19.712Z,4.30
2022-12-05T16:40:46.306Z,4.40
2022-12-05T16:43:19.304Z,4.20
2022-12-05T16:45:46.545Z,4.30
2022-12-05T16:48:27.237Z,4.30
2022-12-05T16:51:12.850Z,4.30
2022-12-05T16:53:41.166Z,4.30
2022-12-05T16:56:12.517Z,4.20
2022-12-05T16:58:39.980Z,4.20
2022-12-05T17:01:07.375Z,4.20
2022-12-05T17:03:35.714Z,4.20
2022-12-05T17:06:02.828Z,4.20
2022-12-05T17:08:29.487Z,4.20
2022-12-05T17:10:56.219Z,4.20
2022-12-05T17:13:22.832Z,4.10
2022-12-05T17:15:49.887Z,4.30
2022-12-05T17:18:17.810Z,4.30
2022-12-05T17:20:46.001Z,5.10
2022-12-05T17:23:17.783Z,4.30
2022-12-05T17:25:52.377Z,4.20
2022-12-05T17:28:20.104Z,4.20
2022-12-05T17:30:46.882Z,4.10
2022-12-05T17:33:14.588Z,4.10
2022-12-05T17:35:41.688Z,4.00
2022-12-05T17:38:08.720Z,4.10
2022-12-05T17:40:35.369Z,4.00
2022-12-05T17:43:02.002Z,3.90
2022-12-05T17:45:29.716Z,4.20
2022-12-05T17:47:56.713Z,4.10
2022-12-05T17:50:24.084Z,4.10
2022-12-05T17:52:51.286Z,4.10
2022-12-05T17:55:22.597Z,4.00
2022-12-05T17:57:49.606Z,4.10
2022-12-05T18:00:17.918Z,4.10
2022-12-05T18:02:45.355Z,4.00
2022-12-05T18:05:12.983Z,3.90
2022-12-05T18:07:40.390Z,3.80
2022-12-05T18:10:12.928Z,3.90
2022-12-05T18:12:39.928Z,3.80
2022-12-05T18:15:07.299Z,3.70
2022-12-05T18:17:34.133Z,3.80
2022-12-05T18:20:00.737Z,3.70
2022-12-05T18:22:27.774Z,3.80
2022-12-05T18:24:54.605Z,3.80
2022-12-05T18:27:21.490Z,3.80
2022-12-05T18:29:48.619Z,3.70
2022-12-05T18:32:15.499Z,3.70
2022-12-05T18:34:42.249Z,3.70
2022-12-05T18:37:09.080Z,3.80
2022-12-05T18:39:35.755Z,3.70
2022-12-05T18:42:02.816Z,3.70
2022-12-05T18:47:31.180Z,3.70
2022-12-05T18:49:57.924Z,3.60
2022-12-05T18:52:24.616Z,3.50
2022-12-05T18:55:09.149Z,3.50
2022-12-05T18:57:38.015Z,4.10
2022-12-05T19:00:06.037Z,3.50
2022-12-05T19:02:32.784Z,3.50
2022-12-05T19:04:59.705Z,4.30
2022-12-05T19:07:26.507Z,3.40
2022-12-05T19:09:53.171Z,3.40
2022-12-05T19:12:20.326Z,3.30
2022-12-05T19:14:47.178Z,3.30
2022-12-05T19:17:13.925Z,3.30
2022-12-05T19:19:40.600Z,3.20
2022-12-05T19:22:07.263Z,3.20
2022-12-05T19:24:33.961Z,3.20
2022-12-05T19:27:00.621Z,3.10
2022-12-05T19:29:27.334Z,3.10
2022-12-05T19:31:54.053Z,3.00
2022-12-05T19:34:20.800Z,2.90
2022-12-05T19:36:47.456Z,2.90
2022-12-05T19:39:18.864Z,2.90
2022-12-05T19:41:45.707Z,2.90
2022-12-05T19:44:12.419Z,2.80
2022-12-05T19:46:39.274Z,3.30
2022-12-05T19:49:08.139Z,2.60
2022-12-05T19:51:35.123Z,2.90
2022-12-05T19:54:02.595Z,2.90
2022-12-05T19:56:30.655Z,2.90
2022-12-05T19:58:58.069Z,3.00
2022-12-05T20:01:26.002Z,3.00
2022-12-05T20:03:54.358Z,2.90
2022-12-05T20:06:21.686Z,3.00
2022-12-05T20:08:48.507Z,4.10
2022-12-05T20:11:16.959Z,3.10
2022-12-05T20:13:47.624Z,3.10
2022-12-05T20:16:15.624Z,3.10
2022-12-05T20:18:42.408Z,3.00
2022-12-05T20:21:10.238Z,3.10
2022-12-05T20:23:37.242Z,3.10
2022-12-05T20:26:05.697Z,3.10
2022-12-05T20:28:32.541Z,3.20
2022-12-05T20:31:06.423Z,3.20
2022-12-05T20:33:33.122Z,3.20
2022-12-05T20:36:00.666Z,3.40
2022-12-05T20:38:27.348Z,3.20
2022-12-05T20:40:58.019Z,3.10
2022-12-05T20:43:24.691Z,3.10
2022-12-05T20:45:51.379Z,2.90
2022-12-05T20:48:18.126Z,3.10
2022-12-05T20:50:44.784Z,3.00
2022-12-05T20:53:11.421Z,3.60
2022-12-05T20:55:38.231Z,3.00
2022-12-05T20:58:05.373Z,3.10
2022-12-05T21:00:32.245Z,3.10
2022-12-05T21:02:59.047Z,3.00
2022-12-05T21:05:25.845Z,2.70
2022-12-05T21:07:52.592Z,3.00
2022-12-05T21:10:19.314Z,2.90
2022-12-05T21:12:45.977Z,3.00
2022-12-05T21:15:12.716Z,2.90
2022-12-05T21:17:39.421Z,2.90
2022-12-05T21:20:06.381Z,2.90
2022-12-05T21:22:33.047Z,2.90
2022-12-05T21:24:59.709Z,2.80
2022-12-05T21:27:26.398Z,2.80
2022-12-05T21:29:53.223Z,2.80
2022-12-05T21:32:19.900Z,2.80
2022-12-05T21:34:46.545Z,2.70
2022-12-05T21:37:13.226Z,2.80
2022-12-05T21:39:39.862Z,2.70
2022-12-05T21:42:06.586Z,2.70
2022-12-05T21:44:33.276Z,2.60
2022-12-05T21:46:59.971Z,3.50
2022-12-05T21:49:28.472Z,2.40
2022-12-05T21:51:55.157Z,2.10
2022-12-05T21:54:21.807Z,2.30
2022-12-05T21:56:48.517Z,2.30
2022-12-05T21:59:15.166Z,2.40
2022-12-05T22:01:42.018Z,2.50
2022-12-05T22:04:08.785Z,2.50
2022-12-05T22:06:35.718Z,2.60
2022-12-05T22:09:03.713Z,2.40
2022-12-05T22:11:30.665Z,2.40
2022-12-05T22:13:57.358Z,2.60
2022-12-05T22:16:30.651Z,2.80
2022-12-05T22:18:58.975Z,2.50
2022-12-05T22:21:25.655Z,2.50
2022-12-05T22:23:52.313Z,2.40
2022-12-05T22:26:23.140Z,2.40
2022-12-05T22:28:50.592Z,2.50
2022-12-05T22:31:17.562Z,2.70
2022-12-05T22:33:44.811Z,2.30
2022-12-05T22:36:12.771Z,3.60
2022-12-05T22:38:40.524Z,2.60
2022-12-05T22:41:08.682Z,2.70
2022-12-05T22:43:36.476Z,2.80
2022-12-05T22:46:07.499Z,2.90
2022-12-05T22:48:34.678Z,2.80
2022-12-05T22:51:01.730Z,2.80
2022-12-05T22:53:28.921Z,2.30
2022-12-05T22:56:01.010Z,2.40
2022-12-05T22:58:27.658Z,2.60
2022-12-05T23:00:54.404Z,2.80
2022-12-05T23:03:21.271Z,2.80
2022-12-05T23:05:48.160Z,3.00
2022-12-05T23:08:14.883Z,3.90
2022-12-05T23:10:41.665Z,4.00
2022-12-05T23:13:08.410Z,3.00
2022-12-05T23:15:37.470Z,3.00
2022-12-05T23:18:04.557Z,4.00
2022-12-05T23:20:31.278Z,3.00
2022-12-05T23:22:57.946Z,2.80
2022-12-05T23:25:24.621Z,4.10
2022-12-05T23:27:51.267Z,2.80
2022-12-05T23:30:17.921Z,3.00
2022-12-05T23:32:44.582Z,3.00
2022-12-05T23:35:11.810Z,3.10
2022-12-05T23:37:38.532Z,3.10
2022-12-05T23:40:05.974Z,3.10
2022-12-05T23:42:32.671Z,3.20
2022-12-05T23:44:59.350Z,3.60
2022-12-05T23:47:26.074Z,3.10
2022-12-05T23:49:52.750Z,3.10
2022-12-05T23:52:19.478Z,3.10
2022-12-05T23:54:46.138Z,3.10
2022-12-05T23:57:17.380Z,3.70
2022-12-05T23:59:44.950Z,3.00
